createdAt,value
2016-08-01T00:00:07.344Z,99.82
2016-08-01T00:01:07.307Z,99.63
2016-08-01T00:02:06.582Z,99.24
2016-08-01T00:03:06.559Z,99.24
2016-08-01T00:04:07.214Z,99.43
2016-08-01T00:05:06.495Z,99.53
2016-08-01T00:06:07.157Z,99.91
2016-08-01T00:07:07.120Z,99.99
2016-08-01T00:08:07.089Z,99.82
2016-08-01T00:09:07.061Z,99.82
2016-08-01T00:10:07.030Z,99.72
2016-08-01T00:11:06.996Z,99.99
2016-08-01T00:12:06.965Z,99.63
2016-08-01T00:13:06.937Z,99.72
2016-08-01T00:14:06.910Z,99.82
2016-08-01T00:15:06.869Z,99.99
2016-08-01T00:16:06.837Z,99.72
2016-08-01T00:17:06.808Z,99.99
2016-08-01T00:18:06.080Z,99.82
2016-08-01T00:19:06.744Z,99.82
2016-08-01T00:20:06.715Z,99.91
2016-08-01T00:21:06.683Z,99.72
2016-08-01T00:22:05.955Z,99.91
2016-08-01T00:23:06.623Z,99.63
2016-08-01T00:24:06.588Z,99.72
2016-08-01T00:25:06.555Z,99.63
2016-08-01T00:26:06.524Z,99.24
2016-08-01T00:27:06.495Z,99.53
2016-08-01T00:28:05.772Z,99.63
2016-08-01T00:29:05.735Z,99.99
2016-08-01T00:30:06.398Z,99.34
2016-08-01T00:31:06.369Z,99.63
2016-08-01T00:32:05.642Z,99.05
2016-08-01T00:33:06.300Z,99.15
2016-08-01T00:34:06.274Z,99.24
2016-08-01T00:35:06.245Z,99.15
2016-08-01T00:36:06.212Z,99.15
2016-08-01T00:37:06.182Z,98.76
2016-08-01T00:38:06.148Z,98.67
2016-08-01T00:39:06.126Z,98.86
2016-08-01T00:40:06.090Z,98.38
2016-08-01T00:41:06.054Z,98.57
2016-08-01T00:42:06.021Z,98.76
2016-08-01T00:43:05.294Z,98.96
2016-08-01T00:44:05.960Z,98.67
2016-08-01T00:45:05.233Z,98.1
2016-08-01T00:46:05.899Z,98.28
2016-08-01T00:47:05.868Z,98
2016-08-01T00:48:05.834Z,97.71
2016-08-01T00:49:05.107Z,97.8
2016-08-01T00:50:05.771Z,97.61
2016-08-01T00:51:05.740Z,97.61
2016-08-01T00:52:05.708Z,97.14
2016-08-01T00:53:05.676Z,97.14
2016-08-01T00:54:05.645Z,97.42
2016-08-01T00:55:05.622Z,96.75
2016-08-01T00:56:05.590Z,96.47
2016-08-01T00:57:04.852Z,96.84
2016-08-01T00:58:04.828Z,96.47
2016-08-01T00:59:05.489Z,96.56
2016-08-01T01:00:04.760Z,96.27
2016-08-01T01:01:05.427Z,96.56
2016-08-01T01:02:05.393Z,96.37
2016-08-01T01:03:05.359Z,96.56
2016-08-01T01:04:04.646Z,96.8
2016-08-01T01:05:05.301Z,96.47
2016-08-01T01:06:05.266Z,96.66
2016-08-01T01:07:04.541Z,96.75
2016-08-01T01:08:04.511Z,96.51
2016-08-01T01:09:05.173Z,96.51
2016-08-01T01:10:04.447Z,96.61
2016-08-01T01:11:05.111Z,96.42
2016-08-01T01:12:05.079Z,96.51
2016-08-01T01:13:05.047Z,96.8
2016-08-01T01:14:05.015Z,96.61
2016-08-01T01:15:04.986Z,96.61
2016-08-01T01:16:04.951Z,96.51
2016-08-01T01:17:04.226Z,96.8
2016-08-01T01:18:04.891Z,96.51
2016-08-01T01:19:04.861Z,96.89
2016-08-01T01:20:04.824Z,96.8
2016-08-01T01:21:04.795Z,96.7
2016-08-01T01:22:04.763Z,96.42
2016-08-01T01:23:04.733Z,96.51
2016-08-01T01:24:04.005Z,96.42
2016-08-01T01:25:04.665Z,97.18
2016-08-01T01:26:04.633Z,96.99
2016-08-01T01:27:04.601Z,96.7
2016-08-01T01:28:04.575Z,97.09
2016-08-01T01:29:04.547Z,97.09
2016-08-01T01:30:04.512Z,97.38
2016-08-01T01:31:03.778Z,97.09
2016-08-01T01:32:04.444Z,97.09
2016-08-01T01:33:04.413Z,96.8
2016-08-01T01:34:04.383Z,96.99
2016-08-01T01:35:04.349Z,96.8
2016-08-01T01:36:04.318Z,96.8
2016-08-01T01:37:04.286Z,97.09
2016-08-01T01:38:04.258Z,97.09
2016-08-01T01:39:04.225Z,96.8
2016-08-01T01:40:04.191Z,97.18
2016-08-01T01:41:04.159Z,97.85
2016-08-01T01:42:04.129Z,97.47
2016-08-01T01:43:04.097Z,97.56
2016-08-01T01:44:04.067Z,97.38
2016-08-01T01:45:04.032Z,97.38
2016-08-01T01:46:03.304Z,96.99
2016-08-01T01:47:03.970Z,97.38
2016-08-01T01:48:03.938Z,97.18
2016-08-01T01:49:03.907Z,97.56
2016-08-01T01:50:03.875Z,97.47
2016-08-01T01:51:03.150Z,97.47
2016-08-01T01:52:03.811Z,97.09
2016-08-01T01:53:03.786Z,97.28
2016-08-01T01:54:03.749Z,97.38
2016-08-01T01:55:03.717Z,97.47
2016-08-01T01:56:02.988Z,97.47
2016-08-01T01:57:02.957Z,96.8
2016-08-01T01:58:03.621Z,97.38
2016-08-01T01:59:03.590Z,96.99
2016-08-01T02:00:03.557Z,96.99
2016-08-01T02:01:03.526Z,97.28
2016-08-01T02:02:03.495Z,96.7
2016-08-01T02:03:03.463Z,97.09
2016-08-01T02:04:03.431Z,96.42
2016-08-01T02:05:03.400Z,96.42
2016-08-01T02:06:03.368Z,97.09
2016-08-01T02:07:02.642Z,96.42
2016-08-01T02:08:03.307Z,96.7
2016-08-01T02:09:03.272Z,96.7
2016-08-01T02:10:03.244Z,96.51
2016-08-01T02:11:03.210Z,96.99
2016-08-01T02:12:02.481Z,96.8
2016-08-01T02:13:03.143Z,96.61
2016-08-01T02:14:03.112Z,96.42
2016-08-01T02:15:03.082Z,96.32
2016-08-01T02:16:03.047Z,96.7
2016-08-01T02:17:03.026Z,96.51
2016-08-01T02:18:02.986Z,96.8
2016-08-01T02:19:02.955Z,96.61
2016-08-01T02:20:02.239Z,96.8
2016-08-01T02:21:02.192Z,96.51
2016-08-01T02:22:02.856Z,96.61
2016-08-01T02:23:02.839Z,96.66
2016-08-01T02:24:02.795Z,96.8
2016-08-01T02:25:02.772Z,96.8
2016-08-01T02:26:02.731Z,95.94
2016-08-01T02:27:02.702Z,96.03
2016-08-01T02:28:02.670Z,96.51
2016-08-01T02:29:02.634Z,96.7
2016-08-01T02:30:02.602Z,96.75
2016-08-01T02:31:02.586Z,96.56
2016-08-01T02:32:02.544Z,96.56
2016-08-01T02:33:01.815Z,96.03
2016-08-01T02:34:02.020Z,95.98
2016-08-01T02:35:01.751Z,96.18
2016-08-01T02:36:02.415Z,96.47
2016-08-01T02:37:02.383Z,95.89
2016-08-01T02:38:01.653Z,95.89
2016-08-01T02:39:02.323Z,95.79
2016-08-01T02:40:01.588Z,95.98
2016-08-01T02:41:02.254Z,96.18
2016-08-01T02:42:02.225Z,95.7
2016-08-01T02:43:02.192Z,95.61
2016-08-01T02:44:02.159Z,95.79
2016-08-01T02:45:01.431Z,96.08
2016-08-01T02:46:01.399Z,96.27
2016-08-01T02:47:02.061Z,96.27
2016-08-01T02:48:02.041Z,96.08
2016-08-01T02:50:01.966Z,95.79
2016-08-01T02:51:01.937Z,96.66
2016-08-01T02:52:01.905Z,96.84
2016-08-01T02:53:01.872Z,96.47
2016-08-01T02:54:01.840Z,96.37
2016-08-01T02:55:01.807Z,96.56
2016-08-01T02:56:01.775Z,96.66
2016-08-01T02:57:01.743Z,96.37
2016-08-01T02:58:01.713Z,96.84
2016-08-01T02:59:01.679Z,96.47
2016-08-01T03:00:01.652Z,96.66
2016-08-01T03:01:00.921Z,96.47
2016-08-01T03:02:01.583Z,96.56
2016-08-01T03:03:01.556Z,96.47
2016-08-01T03:05:01.488Z,96.66
2016-08-01T03:06:01.457Z,96.75
2016-08-01T03:07:00.737Z,96.75
2016-08-01T03:08:00.698Z,96.56
2016-08-01T03:09:01.366Z,96.75
2016-08-01T03:10:01.331Z,96.37
2016-08-01T03:11:01.295Z,96.75
2016-08-01T03:12:01.264Z,95.98
2016-08-01T03:13:01.232Z,95.79
2016-08-01T03:14:01.206Z,96.18
2016-08-01T03:15:00.476Z,96.08
2016-08-01T03:16:01.142Z,96.18
2016-08-01T03:17:00.414Z,96.56
2016-08-01T03:18:01.074Z,96.27
2016-08-01T03:19:01.045Z,96.37
2016-08-01T03:20:00.312Z,96.37
2016-08-01T03:21:00.983Z,96.18
2016-08-01T03:22:00.948Z,96.27
2016-08-01T03:23:00.914Z,96.08
2016-08-01T03:24:00.186Z,96.27
2016-08-01T03:25:00.848Z,96.08
2016-08-01T03:26:00.819Z,96.27
2016-08-01T03:27:00.786Z,96.18
2016-08-01T03:28:00.756Z,95.89
2016-08-01T03:29:00.720Z,95.89
2016-08-01T03:30:00.692Z,96.37
2016-08-01T03:31:00.657Z,96.37
2016-08-01T03:31:59.930Z,96.27
2016-08-01T03:33:00.592Z,96.18
2016-08-01T03:34:00.563Z,96.56
2016-08-01T03:35:00.534Z,96.18
2016-08-01T03:36:00.501Z,96.18
2016-08-01T03:37:00.465Z,96.75
2016-08-01T03:38:00.434Z,96.75
2016-08-01T03:39:00.400Z,96.75
2016-08-01T03:40:00.368Z,96.75
2016-08-01T03:40:59.641Z,96.75
2016-08-01T03:42:00.306Z,96.37
2016-08-01T03:43:00.279Z,96.75
2016-08-01T03:44:00.241Z,96.75
2016-08-01T03:45:00.211Z,96.75
2016-08-01T03:46:00.177Z,96.75
2016-08-01T03:47:00.144Z,96.75
2016-08-01T03:48:00.115Z,96.66
2016-08-01T03:49:00.082Z,97.04
2016-08-01T03:50:00.054Z,96.66
2016-08-01T03:51:00.017Z,96.84
2016-08-01T03:51:59.987Z,96.66
2016-08-01T03:52:59.960Z,96.56
2016-08-01T03:53:59.927Z,96.84
2016-08-01T03:54:59.891Z,96.75
2016-08-01T03:55:59.161Z,96.84
2016-08-01T03:56:59.827Z,96.75
2016-08-01T03:57:59.795Z,96.47
2016-08-01T03:58:59.764Z,96.66
2016-08-01T03:59:59.729Z,96.56
2016-08-01T04:00:59.703Z,96.66
2016-08-01T04:01:59.665Z,96.27
2016-08-01T04:02:59.646Z,95.98
2016-08-01T04:03:59.606Z,96.18
2016-08-01T04:04:59.572Z,96.56
2016-08-01T04:05:59.537Z,95.98
2016-08-01T04:06:59.506Z,96.18
2016-08-01T04:07:59.481Z,95.98
2016-08-01T04:08:58.749Z,96.27
2016-08-01T04:09:59.410Z,95.98
2016-08-01T04:10:59.383Z,95.89
2016-08-01T04:11:59.344Z,95.98
2016-08-01T04:12:59.313Z,96.18
2016-08-01T04:13:58.583Z,95.89
2016-08-01T04:14:58.553Z,96.18
2016-08-01T04:15:59.220Z,96.08
2016-08-01T04:16:59.184Z,96.18
2016-08-01T04:17:59.153Z,96.27
2016-08-01T04:18:58.424Z,95.98
2016-08-01T04:19:59.094Z,95.7
2016-08-01T04:20:59.054Z,96.18
2016-08-01T04:21:59.039Z,96.37
2016-08-01T04:22:59.000Z,96.47
2016-08-01T04:23:58.265Z,96.32
2016-08-01T04:24:58.235Z,95.61
2016-08-01T04:25:58.199Z,95.89
2016-08-01T04:26:58.167Z,95.79
2016-08-01T04:27:58.832Z,95.61
2016-08-01T04:28:58.800Z,95.36
2016-08-01T04:29:58.768Z,95.65
2016-08-01T04:30:58.735Z,95.56
2016-08-01T04:31:58.700Z,95.61
2016-08-01T04:32:58.674Z,95.56
2016-08-01T04:33:58.641Z,95.46
2016-08-01T04:34:58.606Z,95.56
2016-08-01T04:35:58.576Z,95.36
2016-08-01T04:36:58.544Z,95.51
2016-08-01T04:37:58.510Z,95.41
2016-08-01T04:38:58.478Z,95.79
2016-08-01T04:39:58.446Z,95.79
2016-08-01T04:40:58.426Z,95.41
2016-08-01T04:41:58.380Z,95.51
2016-08-01T04:42:58.346Z,95.41
2016-08-01T04:43:57.621Z,95.7
2016-08-01T04:44:58.288Z,95.7
2016-08-01T04:45:58.248Z,95.41
2016-08-01T04:46:58.220Z,95.12
2016-08-01T04:47:58.193Z,95.41
2016-08-01T04:48:58.155Z,95.03
2016-08-01T04:49:58.136Z,95.12
2016-08-01T04:50:58.109Z,95.31
2016-08-01T04:51:58.060Z,95.31
2016-08-01T04:52:58.029Z,95.41
2016-08-01T04:53:57.997Z,95.31
2016-08-01T04:54:57.961Z,95.31
2016-08-01T04:55:57.934Z,95.22
2016-08-01T04:56:57.901Z,94.84
2016-08-01T04:57:57.172Z,95.03
2016-08-01T04:58:57.837Z,94.74
2016-08-01T04:59:57.805Z,94.98
2016-08-01T05:00:57.074Z,95.07
2016-08-01T05:01:57.742Z,94.79
2016-08-01T05:02:57.710Z,94.89
2016-08-01T05:03:57.678Z,95.17
2016-08-01T05:04:57.644Z,94.5
2016-08-01T05:05:57.616Z,94.89
2016-08-01T05:06:57.582Z,94.6
2016-08-01T05:07:56.855Z,94.12
2016-08-01T05:08:56.821Z,94.5
2016-08-01T05:09:56.788Z,94.31
2016-08-01T05:10:57.455Z,93.88
2016-08-01T05:11:57.426Z,93.78
2016-08-01T05:12:57.390Z,93.69
2016-08-01T05:13:56.666Z,93.69
2016-08-01T05:14:57.328Z,93.02
2016-08-01T05:15:57.295Z,92.54
2016-08-01T05:16:56.570Z,91.96
2016-08-01T05:17:57.235Z,92.54
2016-08-01T05:18:57.200Z,92.35
2016-08-01T05:19:57.173Z,91.77
2016-08-01T05:20:57.140Z,92.15
2016-08-01T05:21:57.106Z,91.86
2016-08-01T05:22:57.083Z,91.43
2016-08-01T05:23:57.053Z,91.14
2016-08-01T05:24:57.013Z,91.14
2016-08-01T05:25:56.980Z,90.38
2016-08-01T05:26:56.952Z,90.47
2016-08-01T05:27:56.923Z,89.71
2016-08-01T05:28:56.895Z,89.71
2016-08-01T05:29:56.859Z,88.84
2016-08-01T05:30:56.823Z,88.46
2016-08-01T05:31:56.800Z,88.02
2016-08-01T05:32:56.067Z,86.54
2016-08-01T05:33:56.737Z,85.28
2016-08-01T05:34:56.010Z,84.71
2016-08-01T05:35:56.671Z,84.14
2016-08-01T05:36:56.642Z,84.18
2016-08-01T05:37:56.612Z,83.03
2016-08-01T05:38:56.581Z,82.93
2016-08-01T05:39:56.551Z,82.54
2016-08-01T05:40:56.519Z,81.72
2016-08-01T05:41:56.488Z,81.53
2016-08-01T05:42:56.463Z,80.66
2016-08-01T05:43:56.431Z,78.78
2016-08-01T05:44:55.702Z,76.56
2016-08-01T05:45:55.678Z,73.8
2016-08-01T05:46:56.348Z,71.56
2016-08-01T05:47:56.315Z,69.87
2016-08-01T05:48:56.289Z,68.01
2016-08-01T05:49:55.563Z,66.01
2016-08-01T05:50:56.233Z,64.56
2016-08-01T05:51:55.507Z,64.18
2016-08-01T05:52:55.481Z,64.37
2016-08-01T05:53:56.160Z,64.47
2016-08-01T05:54:55.426Z,65.34
2016-08-01T05:55:56.097Z,65.82
2016-08-01T05:56:56.070Z,66.27
2016-08-01T05:57:55.370Z,66.46
2016-08-01T05:58:56.018Z,66.46
2016-08-01T05:59:55.994Z,66.27
2016-08-01T06:00:55.977Z,66.75
2016-08-01T06:01:55.936Z,66.82
2016-08-01T06:02:55.912Z,67.4
2016-08-01T06:03:55.885Z,67.58
2016-08-01T06:04:55.163Z,67.55
2016-08-01T06:05:55.132Z,67.84
2016-08-01T06:06:55.806Z,68.04
2016-08-01T06:07:55.080Z,67.84
2016-08-01T06:08:55.751Z,68.58
2016-08-01T06:09:55.728Z,68.58
2016-08-01T06:10:55.695Z,68.77
2016-08-01T06:11:55.671Z,69.25
2016-08-01T06:12:55.644Z,69.64
2016-08-01T06:13:55.617Z,69.79
2016-08-01T06:14:54.891Z,69.89
2016-08-01T06:15:55.560Z,69.99
2016-08-01T06:16:54.863Z,70.18
2016-08-01T06:17:55.506Z,70.09
2016-08-01T06:18:55.479Z,70.43
2016-08-01T06:19:54.749Z,70.34
2016-08-01T06:20:55.423Z,70.82
2016-08-01T06:21:55.395Z,70.62
2016-08-01T06:22:54.669Z,71.3
2016-08-01T06:23:55.338Z,71.2
2016-08-01T06:24:55.308Z,71.01
2016-08-01T06:25:55.284Z,71.4
2016-08-01T06:26:55.257Z,71.4
2016-08-01T06:27:54.542Z,71.11
2016-08-01T06:28:55.197Z,71.3
2016-08-01T06:29:55.169Z,71.3
2016-08-01T06:30:55.145Z,71.11
2016-08-01T06:31:55.116Z,71.2
2016-08-01T06:32:55.086Z,70.72
2016-08-01T06:33:55.058Z,70.34
2016-08-01T06:34:55.029Z,70.24
2016-08-01T06:35:54.996Z,70.34
2016-08-01T06:36:54.969Z,70.05
2016-08-01T06:37:54.248Z,70.24
2016-08-01T06:38:54.911Z,70.24
2016-08-01T06:39:54.186Z,69.85
2016-08-01T06:40:54.861Z,69.85
2016-08-01T06:41:54.832Z,69.76
2016-08-01T06:42:54.800Z,69.95
2016-08-01T06:43:54.772Z,70.05
2016-08-01T06:44:54.746Z,70.24
2016-08-01T06:45:54.715Z,69.67
2016-08-01T06:46:54.689Z,69.22
2016-08-01T06:47:54.658Z,68.84
2016-08-01T06:48:54.631Z,68.74
2016-08-01T06:49:53.904Z,68.16
2016-08-01T06:50:54.575Z,65.72
2016-08-01T06:51:54.547Z,62.15
2016-08-01T06:52:54.517Z,58.93
2016-08-01T06:53:54.491Z,56.28
2016-08-01T06:54:53.764Z,52.68
2016-08-01T06:55:54.438Z,49.54
2016-08-01T06:56:54.411Z,47.35
2016-08-01T06:57:54.385Z,45.36
2016-08-01T06:58:54.357Z,42.78
2016-08-01T06:59:53.639Z,41.93
2016-08-01T07:00:53.612Z,40.5
2016-08-01T07:01:54.285Z,38.87
2016-08-01T07:02:53.567Z,38.69
2016-08-01T07:03:53.540Z,37.75
2016-08-01T07:05:54.196Z,34.57
2016-08-01T07:06:54.172Z,33.8
2016-08-01T07:07:54.153Z,33.04
2016-08-01T07:08:54.128Z,32.17
2016-08-01T07:09:54.104Z,30.93
2016-08-01T07:10:53.387Z,30.74
2016-08-01T07:11:53.372Z,29.97
2016-08-01T07:12:54.044Z,29.2
2016-08-01T07:13:54.026Z,28.72
2016-08-01T07:14:54.001Z,27.66
2016-08-01T07:15:53.991Z,27.59
2016-08-01T07:16:53.961Z,26.81
2016-08-01T07:17:53.943Z,26.14
2016-08-01T07:18:53.925Z,25.74
2016-08-01T07:20:53.886Z,25.07
2016-08-01T07:21:53.168Z,24.59
2016-08-01T07:22:53.843Z,24.19
2016-08-01T07:23:53.835Z,23.51
2016-08-01T07:24:53.110Z,23.22
2016-08-01T07:25:53.788Z,22.66
2016-08-01T07:26:53.770Z,22.37
2016-08-01T07:27:53.761Z,21.68
2016-08-01T07:28:53.733Z,22.09
2016-08-01T07:29:53.019Z,21.11
2016-08-01T07:30:52.999Z,19.74
2016-08-01T07:31:53.689Z,19.26
2016-08-01T07:32:53.661Z,18.77
2016-08-01T07:33:53.643Z,17.99
2016-08-01T07:35:53.610Z,17.61
2016-08-01T07:36:53.593Z,17.11
2016-08-01T07:37:53.575Z,16.33
2016-08-01T07:38:53.562Z,15.54
2016-08-01T07:39:53.542Z,15.34
2016-08-01T07:40:53.534Z,15.45
2016-08-01T07:41:52.811Z,15.55
2016-08-01T07:42:52.794Z,15.55
2016-08-01T07:43:53.477Z,15.26
2016-08-01T07:44:53.459Z,14.67
2016-08-01T07:45:53.482Z,13.98
2016-08-01T07:46:52.805Z,13.59
2016-08-01T07:47:53.413Z,12.7
2016-08-01T07:48:53.394Z,13.1
2016-08-01T07:49:52.683Z,12.9
2016-08-01T07:50:52.667Z,12.71
2016-08-01T07:51:52.655Z,12.41
2016-08-01T07:52:53.334Z,12.71
2016-08-01T07:53:53.332Z,12.22
2016-08-01T07:54:53.304Z,12.02
2016-08-01T07:55:52.590Z,12.02
2016-08-01T07:56:52.577Z,11.93
2016-08-01T07:57:53.264Z,12.53
2016-08-01T07:58:53.241Z,11.04
2016-08-01T07:59:53.234Z,10.74
2016-08-01T08:00:53.219Z,10.65
2016-08-01T08:01:53.196Z,10.94
2016-08-01T08:02:53.185Z,10.85
2016-08-01T08:03:53.170Z,11.64
2016-08-01T08:04:53.156Z,11.83
2016-08-01T08:05:53.143Z,10.44
2016-08-01T08:06:53.129Z,10.24
2016-08-01T08:07:53.115Z,10.34
2016-08-01T08:08:53.098Z,10.05
2016-08-01T08:09:53.090Z,9.45
2016-08-01T08:10:53.068Z,9.27
2016-08-01T08:11:53.051Z,9.17
2016-08-01T08:12:53.042Z,9.67
2016-08-01T08:13:52.329Z,10.28
2016-08-01T08:14:53.009Z,10.17
2016-08-01T08:15:52.995Z,10.66
2016-08-01T08:16:52.982Z,10.74
2016-08-01T08:17:52.967Z,10.85
2016-08-01T08:18:52.963Z,9.96
2016-08-01T08:19:52.242Z,9.17
2016-08-01T08:20:52.923Z,8.58
2016-08-01T08:21:52.908Z,8.38
2016-08-01T08:22:52.894Z,7.98
2016-08-01T08:23:52.884Z,7.98
2016-08-01T08:24:52.871Z,7.98
2016-08-01T08:25:52.854Z,7.59
2016-08-01T08:26:52.842Z,7.4
2016-08-01T08:27:52.826Z,7
2016-08-01T08:28:52.811Z,7.2
2016-08-01T08:29:52.802Z,7.1
2016-08-01T08:30:52.788Z,7.1
2016-08-01T08:31:52.774Z,7.01
2016-08-01T08:32:52.093Z,7.2
2016-08-01T08:33:52.749Z,7.2
2016-08-01T08:34:52.746Z,7
2016-08-01T08:35:52.029Z,7
2016-08-01T08:36:52.711Z,6.6
2016-08-01T08:37:52.700Z,6.51
2016-08-01T08:38:52.684Z,6.11
2016-08-01T08:39:52.672Z,6.11
2016-08-01T08:40:52.662Z,7.01
2016-08-01T08:41:52.652Z,7.8
2016-08-01T08:42:52.635Z,7.29
2016-08-01T08:43:52.625Z,6.79
2016-08-01T08:44:52.610Z,6.4
2016-08-01T08:45:52.595Z,6.01
2016-08-01T08:46:52.599Z,5.71
2016-08-01T08:47:51.877Z,6.91
2016-08-01T08:48:52.572Z,7.59
2016-08-01T08:49:52.549Z,8.27
2016-08-01T08:50:51.837Z,9.45
2016-08-01T08:51:51.826Z,10.72
2016-08-01T08:52:52.511Z,11.5
2016-08-01T08:53:52.499Z,12.06
2016-08-01T08:54:52.476Z,12.93
2016-08-01T08:55:52.463Z,14.78
2016-08-01T08:56:52.447Z,15.25
2016-08-01T08:57:52.437Z,16.6
2016-08-01T08:58:52.413Z,17.55
2016-08-01T08:59:52.397Z,18.52
2016-08-01T09:00:52.383Z,19.67
2016-08-01T09:01:52.367Z,20.72
2016-08-01T09:02:52.352Z,21.29
2016-08-01T09:03:52.324Z,21.46
2016-08-01T09:04:52.307Z,22.61
2016-08-01T09:05:52.286Z,23.77
2016-08-01T09:06:52.265Z,24.44
2016-08-01T09:07:52.249Z,26.75
2016-08-01T09:08:52.223Z,28.28
2016-08-01T09:09:52.207Z,27.97
2016-08-01T09:10:52.184Z,26.94
2016-08-01T09:11:52.166Z,24.67
2016-08-01T09:12:51.444Z,21.71
2016-08-01T09:13:52.123Z,19.7
2016-08-01T09:14:51.405Z,17.79
2016-08-01T09:15:52.076Z,15.97
2016-08-01T09:16:52.067Z,14.51
2016-08-01T09:17:52.042Z,12.46
2016-08-01T09:18:52.024Z,11.6
2016-08-01T09:19:52.000Z,10.62
2016-08-01T09:20:51.984Z,9.64
2016-08-01T09:21:51.968Z,8.36
2016-08-01T09:22:51.946Z,8.26
2016-08-01T09:23:51.942Z,8.56
2016-08-01T09:24:51.919Z,8.95
2016-08-01T09:25:51.895Z,8.26
2016-08-01T09:26:51.878Z,8.27
2016-08-01T09:27:51.165Z,8.07
2016-08-01T09:28:51.151Z,7.98
2016-08-01T09:29:51.831Z,7.29
2016-08-01T09:30:51.815Z,6.9
2016-08-01T09:31:51.797Z,6.3
2016-08-01T09:32:51.788Z,6.3
2016-08-01T09:33:51.772Z,6.2
2016-08-01T09:34:51.758Z,6.1
2016-08-01T09:35:51.743Z,6.5
2016-08-01T09:36:51.732Z,5.8
2016-08-01T09:37:51.717Z,6.41
2016-08-01T09:38:51.703Z,6.3
2016-08-01T09:39:51.696Z,6.6
2016-08-01T09:40:51.679Z,7.3
2016-08-01T09:41:51.664Z,9.08
2016-08-01T09:42:51.649Z,10.15
2016-08-01T09:43:51.637Z,12.01
2016-08-01T09:44:50.929Z,12.77
2016-08-01T09:45:51.607Z,12.95
2016-08-01T09:46:51.591Z,11.88
2016-08-01T09:47:51.580Z,10.71
2016-08-01T09:48:51.564Z,10.13
2016-08-01T09:49:51.556Z,10.43
2016-08-01T09:50:50.838Z,9.93
2016-08-01T09:51:50.820Z,10.33
2016-08-01T09:52:50.806Z,10.52
2016-08-01T09:53:51.487Z,11.3
2016-08-01T09:54:51.469Z,12.67
2016-08-01T09:55:51.457Z,13.35
2016-08-01T09:56:51.440Z,14.02
2016-08-01T09:57:51.420Z,15.09
2016-08-01T09:58:51.422Z,15.97
2016-08-01T09:59:51.388Z,17.03
2016-08-01T10:00:51.369Z,17.9
2016-08-01T10:01:50.657Z,18.57
2016-08-01T10:02:51.336Z,19.34
2016-08-01T10:03:51.326Z,19.71
2016-08-01T10:04:51.301Z,20.59
2016-08-01T10:05:51.279Z,21.15
2016-08-01T10:06:51.264Z,21.81
2016-08-01T10:07:50.547Z,22.69
2016-08-01T10:08:50.526Z,23.35
2016-08-01T10:09:51.204Z,23.93
2016-08-01T10:10:51.181Z,24.9
2016-08-01T10:11:51.164Z,25.67
2016-08-01T10:12:51.145Z,25.36
2016-08-01T10:13:51.122Z,24.68
2016-08-01T10:14:50.417Z,24.01
2016-08-01T10:15:51.085Z,24.51
2016-08-01T10:16:51.062Z,23.74
2016-08-01T10:17:50.339Z,23.05
2016-08-01T10:18:51.015Z,22.56
2016-08-01T10:19:50.997Z,23.15
2016-08-01T10:20:50.980Z,22.27
2016-08-01T10:21:50.955Z,22.56
2016-08-01T10:22:50.235Z,23.14
2016-08-01T10:23:50.911Z,22.66
2016-08-01T10:24:50.885Z,22.85
2016-08-01T10:25:50.170Z,22.07
2016-08-01T10:26:50.848Z,21.88
2016-08-01T10:27:50.832Z,20.42
2016-08-01T10:28:50.799Z,19.74
2016-08-01T10:29:50.781Z,18.29
2016-08-01T10:30:50.063Z,17.34
2016-08-01T10:31:50.737Z,15.72
2016-08-01T10:32:50.717Z,14.37
2016-08-01T10:33:50.695Z,12.72
2016-08-01T10:34:50.677Z,11.84
2016-08-01T10:35:50.658Z,10.18
2016-08-01T10:36:50.639Z,10.1
2016-08-01T10:37:50.616Z,9.9
2016-08-01T10:38:50.599Z,9.52
2016-08-01T10:39:50.580Z,9.03
2016-08-01T10:40:50.560Z,8.34
2016-08-01T10:41:50.541Z,8.06
2016-08-01T10:42:50.530Z,7.67
2016-08-01T10:43:50.508Z,7.27
2016-08-01T10:44:50.491Z,7.37
2016-08-01T10:45:49.782Z,7.38
2016-08-01T10:46:50.461Z,6.68
2016-08-01T10:47:50.439Z,6.78
2016-08-01T10:48:50.429Z,6.28
2016-08-01T10:49:50.414Z,6.38
2016-08-01T10:50:50.399Z,6.18
2016-08-01T10:51:50.386Z,6.38
2016-08-01T10:52:50.369Z,6.19
2016-08-01T10:53:50.359Z,5.89
2016-08-01T10:54:50.342Z,5.99
2016-08-01T10:55:50.334Z,5.9
2016-08-01T10:56:50.316Z,5.49
2016-08-01T10:57:50.304Z,5.79
2016-08-01T10:58:49.590Z,5.4
2016-08-01T10:59:50.272Z,5.2
2016-08-01T11:00:49.567Z,4.8
2016-08-01T11:01:50.248Z,4.3
2016-08-01T11:02:50.233Z,4.5
2016-08-01T11:03:50.223Z,4.5
2016-08-01T11:04:50.206Z,5.29
2016-08-01T11:05:50.194Z,5.29
2016-08-01T11:06:50.182Z,5.29
2016-08-01T11:07:49.470Z,5.29
2016-08-01T11:08:50.151Z,6.08
2016-08-01T11:09:50.138Z,7.37
2016-08-01T11:10:50.120Z,7.95
2016-08-01T11:11:50.108Z,8.64
2016-08-01T11:12:49.395Z,10.11
2016-08-01T11:13:50.075Z,10.69
2016-08-01T11:14:50.056Z,11.28
2016-08-01T11:15:50.041Z,12.65
2016-08-01T11:16:49.326Z,13.03
2016-08-01T11:17:50.003Z,12.82
2016-08-01T11:18:49.988Z,13.8
2016-08-01T11:19:49.970Z,13.79
2016-08-01T11:20:49.954Z,14.28
2016-08-01T11:21:49.938Z,14.28
2016-08-01T11:22:49.920Z,14.66
2016-08-01T11:23:49.900Z,15.54
2016-08-01T11:24:49.882Z,15.83
2016-08-01T11:25:49.874Z,15.92
2016-08-01T11:26:49.846Z,16.71
2016-08-01T11:27:49.827Z,16.88
2016-08-01T11:28:49.809Z,17.36
2016-08-01T11:29:49.785Z,17.45
2016-08-01T11:30:49.770Z,18.91
2016-08-01T11:31:49.754Z,19.28
2016-08-01T11:32:49.033Z,19.96
2016-08-01T11:33:49.720Z,19.65
2016-08-01T11:34:49.688Z,19.93
2016-08-01T11:35:49.665Z,20.41
2016-08-01T11:36:49.649Z,20.89
2016-08-01T11:37:49.626Z,21.07
2016-08-01T11:38:49.605Z,21.84
2016-08-01T11:39:49.584Z,22.31
2016-08-01T11:40:49.563Z,22.71
2016-08-01T11:41:49.551Z,22.61
2016-08-01T11:42:48.823Z,23.18
2016-08-01T11:43:49.498Z,23.18
2016-08-01T11:44:49.478Z,23.85
2016-08-01T11:45:49.457Z,24.71
2016-08-01T11:46:49.433Z,25.58
2016-08-01T11:47:49.404Z,26.17
2016-08-01T11:48:49.385Z,26.73
2016-08-01T11:49:49.361Z,26.55
2016-08-01T11:51:48.621Z,26.26
2016-08-01T11:52:49.295Z,25.68
2016-08-01T11:53:49.270Z,25.98
2016-08-01T11:54:49.246Z,25.69
2016-08-01T11:55:49.225Z,25.51
2016-08-01T11:56:49.201Z,25.12
2016-08-01T11:57:49.178Z,24.83
2016-08-01T11:58:49.156Z,25.2
2016-08-01T11:59:49.134Z,24.61
2016-08-01T12:00:49.106Z,25.78
2016-08-01T12:01:48.387Z,25.86
2016-08-01T12:02:49.058Z,26.34
2016-08-01T12:03:49.046Z,26.92
2016-08-01T12:04:48.315Z,27.5
2016-08-01T12:06:48.980Z,28.93
2016-08-01T12:07:48.941Z,29.12
2016-08-01T12:08:48.919Z,29.41
2016-08-01T12:09:48.894Z,28.94
2016-08-01T12:10:48.872Z,29.52
2016-08-01T12:11:48.848Z,30.29
2016-08-01T12:12:48.824Z,30.76
2016-08-01T12:13:48.800Z,30.26
2016-08-01T12:14:48.777Z,30.07
2016-08-01T12:15:48.747Z,30.45
2016-08-01T12:16:48.032Z,30.74
2016-08-01T12:17:48.703Z,31.62
2016-08-01T12:18:48.677Z,31.5
2016-08-01T12:19:48.658Z,32.07
2016-08-01T12:20:48.629Z,32.34
2016-08-01T12:21:48.604Z,32.82
2016-08-01T12:22:48.581Z,33.41
2016-08-01T12:23:48.563Z,33.41
2016-08-01T12:24:48.531Z,33.59
2016-08-01T12:25:48.507Z,34.17
2016-08-01T12:26:47.787Z,34.65
2016-08-01T12:27:47.762Z,34.84
2016-08-01T12:28:48.436Z,34.92
2016-08-01T12:29:47.709Z,34.92
2016-08-01T12:30:47.685Z,34.52
2016-08-01T12:31:48.354Z,35.2
2016-08-01T12:32:48.335Z,35.57
2016-08-01T12:33:47.611Z,35.66
2016-08-01T12:34:48.277Z,36.15
2016-08-01T12:35:48.253Z,36.05
2016-08-01T12:36:47.535Z,36.13
2016-08-01T12:37:48.206Z,36.13
2016-08-01T12:38:47.496Z,36.03
2016-08-01T12:39:48.151Z,36.03
2016-08-01T12:40:48.127Z,36.22
2016-08-01T12:41:48.098Z,36.22
2016-08-01T12:42:48.081Z,36.32
2016-08-01T12:43:48.049Z,35.45
2016-08-01T12:44:48.030Z,37.19
2016-08-01T12:45:47.994Z,37.08
2016-08-01T12:46:47.970Z,36.69
2016-08-01T12:47:47.949Z,36.98
2016-08-01T12:48:47.917Z,38.14
2016-08-01T12:49:47.192Z,37.37
2016-08-01T12:50:47.866Z,37.65
2016-08-01T12:51:47.144Z,36.88
2016-08-01T12:52:47.811Z,36.11
2016-08-01T12:53:47.786Z,36.4
2016-08-01T12:54:47.063Z,37.17
2016-08-01T12:55:47.740Z,36.52
2016-08-01T12:56:47.705Z,36.42
2016-08-01T12:57:46.982Z,37.1
2016-08-01T12:58:47.654Z,37
2016-08-01T12:59:47.626Z,36.13
2016-08-01T13:00:47.604Z,35.86
2016-08-01T13:01:47.572Z,35.66
2016-08-01T13:02:47.546Z,35.66
2016-08-01T13:03:46.822Z,35.76
2016-08-01T13:04:47.489Z,35.39
2016-08-01T13:05:46.773Z,35.1